• Join FlightAware (Why Join?)
  • Login
  • US Flag 
07:40PM EDT


 

Airport Tracker/Info


-or-


 

Live Flight TrackerFlight Track Log ✈ AWE2690 ✈ 02-Oct-2013 ✈ KIAD - KCLT

Flight Track Log - Related Links

Times and Time Zones

All times are in EDT time to prevent confusion due to time zone crossing. See the AWE2690 flight status page for this flight to view local times or setup timezone preferences in your user account.

Time Position Orientation Groundspeed Altitude Reporting Facility
EDT Latitude Longitude Course Direction KTS MPH feet Rate Location/Type
11:42AM 38.9500 -77.5500 238° Southwest 216 249 2,800  Level Potomac TRACON
11:43AM 38.9000 -77.6333 232° Southwest 261 300 3,900 1,080 Climbing Potomac TRACON
11:44AM 38.8500 -77.6833 218° Southwest 279 321 5,000 2,160 Climbing Potomac TRACON
11:45AM 38.6141 -77.7901 238° Southwest  Level Estimated
11:45AM 38.7833 -77.6667 169° South 273 314 8,300  Level Potomac TRACON
11:46AM 38.5306 -77.8721 230° Southwest  Level Estimated
11:46AM 38.6853 -77.6528 174° South 283 326 11,100  Level Washington Center
11:47AM 38.4470 -77.9540 233° Southwest  Level Estimated
11:48AM 38.3634 -78.0357 238° Southwest  Level Estimated
11:48AM 38.5961 -77.6264 167° South 307 353 13,400  Level Washington Center
11:49AM 38.4986 -77.5972 167° South 339 390 15,200 2,100 Climbing Washington Center
11:50AM 38.3964 -77.5944 179° South 363 418 17,700 2,040 Climbing Washington Center
11:51AM 38.3239 -77.6853 225° Southwest 336 387 19,400 1,740 Climbing Washington Center
11:51AM 38.2553 -77.7889 230° Southwest 357 411 21,200 1,560 Climbing Washington Center
11:52AM 38.1975 -77.8719 228° Southwest 376 433 22,500 1,560 Climbing Washington Center
11:54AM 38.1200 -77.9908 230° Southwest 395 455 24,400 1,740 Climbing Washington Center
11:55AM 38.0469 -78.1019 230° Southwest 414 476 26,100 1,620 Climbing Washington Center
11:55AM 37.9778 -78.2131 232° Southwest 414 476 27,700 900 Climbing Washington Center
11:57AM 37.8981 -78.3261 228° Southwest 420 483 28,000 120 Climbing Washington Center
11:58AM 37.8183 -78.4361 227° Southwest 425 489 28,000  Level Washington Center
11:59AM 37.7319 -78.5642 230° Southwest 431 496 28,000  Level Washington Center
11:59AM 37.6519 -78.6764 228° Southwest 431 496 28,000  Level Washington Center
12:00PM 37.5739 -78.7858 228° Southwest 426 490 28,000  Level Washington Center
12:02PM 37.4978 -78.8953 229° Southwest 426 490 28,000  Level Washington Center
12:03PM 37.4242 -78.9967 228° Southwest 432 497 28,000  Level Washington Center
12:04PM 37.3458 -79.1083 229° Southwest 432 497 28,000  Level Washington Center
12:04PM 37.2611 -79.2192 226° Southwest 432 497 28,000  Level Washington Center
12:06PM 37.1644 -79.3083 216° Southwest 432 497 28,000  Level Washington Center
12:07PM 37.0617 -79.3944 214° Southwest 444 511 28,000  Level Washington Center
12:08PM 36.9608 -79.4781 214° Southwest 444 511 28,000  Level Washington Center
12:09PM 36.8494 -79.5708 214° Southwest 444 511 28,000  Level Washington Center
12:09PM 36.7464 -79.6539 213° Southwest 444 511 28,000 -60 Level Washington Center
12:11PM 36.6478 -79.7367 214° Southwest 444 511 27,900 -540 Descending Washington Center
12:12PM 36.5142 -79.8386 212° Southwest 420 483 26,800 -1,020 Descending Atlanta Center
12:13PM 36.4186 -79.9158 213° Southwest 420 483 25,600 -1,380 Descending Atlanta Center
12:14PM 36.3233 -79.9956 214° Southwest 420 483 24,100 -1,500 Descending Atlanta Center
12:15PM 36.2422 -80.0667 215° Southwest 414 476 22,600 -1,500 Descending Atlanta Center
12:16PM 36.1528 -80.1431 215° Southwest 403 464 21,200 -1,500 Descending Atlanta Center
12:17PM 36.0653 -80.2139 213° Southwest 398 458 19,600 -1,560 Descending Atlanta Center
12:18PM 35.9803 -80.2897 216° Southwest 388 447 18,100 -1,620 Descending Atlanta Center
12:18PM 35.9397 -80.3328 221° Southwest 357 411 17,300 -1,500 Descending Atlanta Center
12:19PM 35.9008 -80.3575 207° Southwest 370 426 16,600 -1,680 Descending Atlanta Center
12:19PM 35.8664 -80.3897 217° Southwest 338 389 15,800 -1,620 Descending Atlanta Center
12:20PM 35.8275 -80.4197 212° Southwest 342 394 15,000 -1,440 Descending Atlanta Center
12:20PM 35.8053 -80.4439 221° Southwest 322 371 14,500 -1,620 Descending Atlanta Center
12:21PM 35.7564 -80.4817 212° Southwest 325 374 13,400 -1,680 Descending Atlanta Center
12:21PM 35.7239 -80.5139 219° Southwest 309 356 12,700 -1,500 Descending Atlanta Center
12:22PM 35.6850 -80.5411 210° Southwest 319 367 11,900 -1,320 Descending Atlanta Center
12:22PM 35.6567 -80.5681 218° Southwest 302 348 11,500 -900 Descending Atlanta Center
12:23PM 35.6075 -80.6031 210° Southwest 314 361 11,000 -540 Descending Atlanta Center
12:23PM 35.5872 -80.6244 221° Southwest 299 344 11,000  Level Atlanta Center
12:24PM 35.5364 -80.6650 213° Southwest 309 356 11,000 -120 Level Atlanta Center
12:24PM 35.5219 -80.6783 217° Southwest 310 357 10,900 -720 Descending Atlanta Center
12:25PM 35.4669 -80.7239 214° Southwest 304 350 10,300 -720 Descending Atlanta Center
12:25PM 35.4303 -80.7558 215° Southwest 306 352 10,000 -300 Descending Atlanta Center
12:26PM 35.3956 -80.7803 210° Southwest 299 344 10,000  Level Atlanta Center
12:26PM 35.3669 -80.8094 220° Southwest 300 345 10,000 -240 Level Atlanta Center
12:27PM 35.3261 -80.8364 208° Southwest 299 344 9,800 -600 Descending Atlanta Center
12:27PM 35.2989 -80.8425 190° South 282 325 9,500 -840 Descending Atlanta Center
12:28PM 35.2508 -80.8367 174° South 269 310 9,000 -540 Descending Atlanta Center
12:28PM 35.2239 -80.8378 182° South 234 269 8,900 -1,260 Descending Atlanta Center
12:29PM 35.1569 -80.8303 175° South 230 265 7,200 -1,860 Descending Atlanta Center
12:30PM 35.0961 -80.8275 178° South 237 273 5,400 -2,100 Descending Atlanta Center
12:31PM 35.0853 -80.8889 258° West 214 246 3,400 -1,560 Descending Atlanta Center
12:32PM 35.1364 -80.9325 325° Northwest 174 200 2,200 -1,020 Descending Atlanta Center
12:33PM 35.1761 -80.9361 356° North 132 152 1,200 -1,020 Descending Atlanta Center
12:35PM 35.2000 -80.9333 219° Southwest  Level FlightAware Approximate
12:42PM 35.2137 -80.9491 219° Southwest  Level Estimated